createdAt,value
2019-05-15T00:01:29.461Z,100750.00
2019-05-15T00:03:58.493Z,100757.00
2019-05-15T00:06:28.509Z,100755.00
2019-05-15T00:08:58.916Z,100768.00
2019-05-15T00:11:28.792Z,100762.00
2019-05-15T00:13:59.303Z,100767.00
2019-05-15T00:16:29.251Z,100762.00
2019-05-15T00:18:59.968Z,100761.00
2019-05-15T00:21:29.043Z,100759.00
2019-05-15T00:23:58.638Z,100757.00
2019-05-15T00:26:27.415Z,100754.00
2019-05-15T00:29:09.448Z,100755.00
2019-05-15T00:31:28.992Z,100745.00
2019-05-15T00:33:58.879Z,100744.00
2019-05-15T00:36:28.662Z,100750.00
2019-05-15T00:38:59.046Z,100746.00
2019-05-15T00:41:27.933Z,100746.00
2019-05-15T00:43:58.521Z,100749.00
2019-05-15T00:46:28.910Z,100737.00
2019-05-15T00:48:59.151Z,100726.00
2019-05-15T00:51:28.459Z,100725.00
2019-05-15T00:53:58.934Z,100730.00
2019-05-15T00:56:28.444Z,100737.00
2019-05-15T00:58:58.820Z,100734.00
2019-05-15T01:01:28.653Z,100727.00
2019-05-15T01:03:58.620Z,100720.00
2019-05-15T01:06:28.496Z,100715.00
2019-05-15T01:08:58.919Z,100719.00
2019-05-15T01:11:28.471Z,100720.00
2019-05-15T01:13:58.486Z,100715.00
2019-05-15T01:16:28.787Z,100717.00
2019-05-15T01:18:58.554Z,100710.00
2019-05-15T01:21:29.224Z,100704.00
2019-05-15T01:23:58.941Z,100712.00
2019-05-15T01:26:28.244Z,100706.00
2019-05-15T01:28:58.434Z,100710.00
2019-05-15T01:31:28.502Z,100698.00
2019-05-15T01:33:58.315Z,100708.00
2019-05-15T01:36:28.736Z,100690.00
2019-05-15T01:38:58.448Z,100698.00
2019-05-15T01:41:28.191Z,100690.00
2019-05-15T01:43:58.111Z,100685.00
2019-05-15T01:46:28.556Z,100686.00
2019-05-15T01:48:58.550Z,100690.00
2019-05-15T01:51:28.574Z,100678.00
2019-05-15T01:53:58.371Z,100675.00
2019-05-15T01:56:29.214Z,100675.00
2019-05-15T01:58:58.048Z,100671.00
2019-05-15T02:01:28.542Z,100668.00
2019-05-15T02:03:59.034Z,100666.00
2019-05-15T02:06:28.519Z,100672.00
2019-05-15T02:08:58.709Z,100665.00
2019-05-15T02:11:28.869Z,100663.00
2019-05-15T02:13:58.665Z,100666.00
2019-05-15T02:16:29.191Z,100668.00
2019-05-15T02:18:58.195Z,100670.00
2019-05-15T02:21:28.816Z,100657.00
2019-05-15T02:23:59.231Z,100669.00
2019-05-15T02:26:28.157Z,100663.00
2019-05-15T02:28:56.913Z,100661.00
2019-05-15T02:31:25.636Z,100655.00
2019-05-15T02:33:58.779Z,100655.00
2019-05-15T02:36:29.199Z,100644.00
2019-05-15T02:38:59.489Z,100638.00
2019-05-15T02:41:29.610Z,100636.00
2019-05-15T02:43:59.170Z,100630.00
2019-05-15T02:46:30.069Z,100626.00
2019-05-15T02:48:59.245Z,100622.00
2019-05-15T02:51:29.929Z,100624.00
2019-05-15T02:53:58.661Z,100628.00
2019-05-15T02:56:29.330Z,100618.00
2019-05-15T02:58:59.985Z,100624.00
2019-05-15T03:01:28.624Z,100625.00
2019-05-15T03:03:59.604Z,100619.00
2019-05-15T03:06:29.818Z,100613.00
2019-05-15T03:08:59.558Z,100617.00
2019-05-15T03:11:29.423Z,100621.00
2019-05-15T03:13:59.298Z,100615.00
2019-05-15T03:16:30.686Z,100624.00
2019-05-15T03:18:59.811Z,100626.00
2019-05-15T03:21:29.746Z,100621.00
2019-05-15T03:24:00.301Z,100614.00
2019-05-15T03:26:31.207Z,100614.00
2019-05-15T03:28:59.621Z,100612.00
2019-05-15T03:31:50.544Z,100607.00
2019-05-15T03:34:02.998Z,100603.00
2019-05-15T03:36:31.668Z,100599.00
2019-05-15T03:39:00.073Z,100599.00
2019-05-15T03:41:30.203Z,100605.00
2019-05-15T03:43:59.621Z,100608.00
2019-05-15T03:46:29.292Z,100610.00
2019-05-15T03:49:00.368Z,100607.00
2019-05-15T03:51:30.264Z,100615.00
2019-05-15T03:54:00.396Z,100605.00
2019-05-15T03:56:30.153Z,100605.00
2019-05-15T03:58:59.762Z,100590.00
2019-05-15T04:01:38.126Z,100591.00
2019-05-15T04:04:00.048Z,100596.00
2019-05-15T04:06:30.089Z,100595.00
2019-05-15T04:08:58.753Z,100583.00
2019-05-15T04:11:29.390Z,100586.00
2019-05-15T04:13:59.417Z,100591.00
2019-05-15T04:16:29.544Z,100591.00
2019-05-15T04:19:00.216Z,100592.00
2019-05-15T04:21:30.540Z,100579.00
2019-05-15T04:24:01.954Z,100592.00
2019-05-15T04:26:35.909Z,100577.00
2019-05-15T04:29:04.493Z,100587.00
2019-05-15T04:31:50.296Z,100588.00
2019-05-15T04:34:03.463Z,100582.00
2019-05-15T04:36:32.169Z,100587.00
2019-05-15T04:39:02.063Z,100591.00
2019-05-15T04:41:30.447Z,100589.00
2019-05-15T04:43:59.770Z,100591.00
2019-05-15T04:46:29.929Z,100579.00
2019-05-15T04:48:59.595Z,100576.00
2019-05-15T04:51:30.472Z,100573.00
2019-05-15T04:53:59.171Z,100573.00
2019-05-15T04:56:29.278Z,100570.00
2019-05-15T04:59:00.065Z,100578.00
2019-05-15T05:01:29.500Z,100580.00
2019-05-15T05:03:58.889Z,100576.00
2019-05-15T05:06:29.387Z,100579.00
2019-05-15T05:08:59.680Z,100572.00
2019-05-15T05:11:28.821Z,100572.00
2019-05-15T05:13:59.104Z,100561.00
2019-05-15T05:16:29.481Z,100563.00
2019-05-15T05:18:59.436Z,100558.00
2019-05-15T05:21:30.044Z,100557.00
2019-05-15T05:23:59.000Z,100546.00
2019-05-15T05:26:29.326Z,100549.00
2019-05-15T05:29:01.687Z,100550.00
2019-05-15T05:31:30.364Z,100544.00
2019-05-15T05:33:59.169Z,100551.00
2019-05-15T05:36:27.966Z,100550.00
2019-05-15T05:38:58.423Z,100549.00
2019-05-15T05:41:28.052Z,100553.00
2019-05-15T05:43:58.693Z,100553.00
2019-05-15T05:46:28.021Z,100559.00
2019-05-15T05:48:58.304Z,100559.00
2019-05-15T05:51:28.163Z,100565.00
2019-05-15T05:53:58.877Z,100570.00
2019-05-15T05:56:28.768Z,100563.00
2019-05-15T05:58:58.604Z,100570.00
2019-05-15T06:01:28.382Z,100560.00
2019-05-15T06:03:58.342Z,100563.00
2019-05-15T06:06:29.296Z,100562.00
2019-05-15T06:08:58.423Z,100563.00
2019-05-15T06:11:27.771Z,100561.00
2019-05-15T06:13:58.419Z,100559.00
2019-05-15T06:16:28.344Z,100567.00
2019-05-15T06:18:58.624Z,100555.00
2019-05-15T06:21:28.556Z,100561.00
2019-05-15T06:24:04.849Z,100565.00
2019-05-15T06:26:30.443Z,100565.00
2019-05-15T06:29:00.969Z,100549.00
2019-05-15T06:31:29.492Z,100553.00
2019-05-15T06:33:58.172Z,100551.00
2019-05-15T06:36:28.834Z,100554.00
2019-05-15T06:38:59.033Z,100546.00
2019-05-15T06:41:28.610Z,100545.00
2019-05-15T06:43:58.854Z,100541.00
2019-05-15T06:46:28.294Z,100549.00
2019-05-15T06:48:58.101Z,100546.00
2019-05-15T06:51:28.779Z,100552.00
2019-05-15T06:53:58.340Z,100539.00
2019-05-15T06:56:28.211Z,100536.00
2019-05-15T06:58:58.152Z,100541.00
2019-05-15T07:01:29.292Z,100552.00
2019-05-15T07:03:58.981Z,100541.00
2019-05-15T07:06:28.703Z,100542.00
2019-05-15T07:08:58.855Z,100537.00
2019-05-15T07:11:28.272Z,100540.00
2019-05-15T07:13:58.070Z,100542.00
2019-05-15T07:16:28.476Z,100544.00
2019-05-15T07:18:58.905Z,100543.00
2019-05-15T07:21:28.521Z,100541.00
2019-05-15T07:23:58.409Z,100541.00
2019-05-15T07:26:29.112Z,100546.00
2019-05-15T07:28:59.532Z,100537.00
2019-05-15T07:31:30.121Z,100545.00
2019-05-15T07:33:59.850Z,100534.00
2019-05-15T07:36:30.592Z,100540.00
2019-05-15T07:38:59.028Z,100534.00
2019-05-15T07:41:28.435Z,100534.00
2019-05-15T07:43:58.615Z,100542.00
2019-05-15T07:46:28.859Z,100539.00
2019-05-15T07:48:58.454Z,100530.00
2019-05-15T07:51:28.745Z,100532.00
2019-05-15T07:53:58.350Z,100529.00
2019-05-15T07:56:28.943Z,100528.00
2019-05-15T07:58:58.610Z,100527.00
2019-05-15T08:01:29.088Z,100525.00
2019-05-15T08:04:14.310Z,100522.00
2019-05-15T08:06:29.004Z,100518.00
2019-05-15T08:08:59.279Z,100519.00
2019-05-15T08:11:29.182Z,100517.00
2019-05-15T08:13:58.479Z,100512.00
2019-05-15T08:16:28.682Z,100522.00
2019-05-15T08:18:58.011Z,100517.00
2019-05-15T08:21:29.076Z,100520.00
2019-05-15T08:23:59.096Z,100520.00
2019-05-15T08:26:29.583Z,100521.00
2019-05-15T08:28:58.061Z,100507.00
2019-05-15T08:31:28.847Z,100504.00
2019-05-15T08:34:12.585Z,100505.00
2019-05-15T08:36:31.375Z,100504.00
2019-05-15T08:38:59.732Z,100501.00
2019-05-15T08:41:29.549Z,100499.00
2019-05-15T08:43:58.443Z,100503.00
2019-05-15T08:46:27.954Z,100500.00
2019-05-15T08:48:58.320Z,100496.00
2019-05-15T08:51:28.382Z,100504.00
2019-05-15T08:53:58.047Z,100504.00
2019-05-15T08:56:28.938Z,100513.00
2019-05-15T08:58:58.143Z,100507.00
2019-05-15T09:01:28.751Z,100508.00
2019-05-15T09:03:58.183Z,100506.00
2019-05-15T09:06:29.137Z,100495.00
2019-05-15T09:08:58.559Z,100499.00
2019-05-15T09:11:28.339Z,100496.00
2019-05-15T09:13:59.476Z,100489.00
2019-05-15T09:16:28.066Z,100497.00
2019-05-15T09:18:59.005Z,100486.00
2019-05-15T09:21:28.935Z,100482.00
2019-05-15T09:23:59.082Z,100472.00
2019-05-15T09:26:28.424Z,100481.00
2019-05-15T09:28:59.171Z,100476.00
2019-05-15T09:31:28.620Z,100473.00
2019-05-15T09:33:58.542Z,100474.00
2019-05-15T09:36:29.253Z,100473.00
2019-05-15T09:38:58.590Z,100469.00
2019-05-15T09:41:28.729Z,100461.00
2019-05-15T09:43:57.963Z,100465.00
2019-05-15T09:46:28.990Z,100465.00
2019-05-15T09:48:59.297Z,100462.00
2019-05-15T09:51:29.086Z,100455.00
2019-05-15T09:53:59.580Z,100458.00
2019-05-15T09:56:29.068Z,100455.00
2019-05-15T09:58:58.350Z,100452.00
2019-05-15T10:01:28.504Z,100457.00
2019-05-15T10:03:57.624Z,100448.00
2019-05-15T10:06:28.510Z,100447.00
2019-05-15T10:08:56.857Z,100442.00
2019-05-15T10:11:25.456Z,100443.00
2019-05-15T10:13:54.675Z,100449.00
2019-05-15T10:16:23.472Z,100438.00
2019-05-15T10:18:51.887Z,100442.00
2019-05-15T10:21:20.571Z,100441.00
2019-05-15T10:23:49.637Z,100444.00
2019-05-15T10:26:19.298Z,100432.00
2019-05-15T10:28:49.267Z,100433.00
2019-05-15T10:31:20.218Z,100437.00
2019-05-15T10:33:49.406Z,100440.00
2019-05-15T10:36:18.845Z,100444.00
2019-05-15T10:38:49.709Z,100429.00
2019-05-15T10:41:19.005Z,100423.00
2019-05-15T10:43:56.092Z,100411.00
2019-05-15T10:46:19.051Z,100419.00
2019-05-15T10:48:49.233Z,100424.00
2019-05-15T10:51:19.602Z,100431.00
2019-05-15T10:53:48.984Z,100424.00
2019-05-15T10:56:18.723Z,100423.00
2019-05-15T10:58:50.130Z,100427.00
2019-05-15T11:01:19.193Z,100423.00
2019-05-15T11:03:49.509Z,100422.00
2019-05-15T11:06:18.780Z,100416.00
2019-05-15T11:08:51.057Z,100422.00
2019-05-15T11:11:18.523Z,100415.00
2019-05-15T11:13:47.286Z,100411.00
2019-05-15T11:16:18.611Z,100417.00
2019-05-15T11:18:48.623Z,100424.00
2019-05-15T11:21:19.010Z,100416.00
2019-05-15T11:23:49.377Z,100411.00
2019-05-15T11:26:19.422Z,100411.00
2019-05-15T11:28:49.820Z,100417.00
2019-05-15T11:31:20.719Z,100413.00
2019-05-15T11:33:50.689Z,100410.00
2019-05-15T11:36:19.906Z,100401.00
2019-05-15T11:38:51.061Z,100404.00
2019-05-15T11:41:19.661Z,100403.00
2019-05-15T11:43:49.507Z,100413.00
2019-05-15T11:46:18.710Z,100397.00
2019-05-15T11:48:49.794Z,100394.00
2019-05-15T11:51:18.516Z,100396.00
2019-05-15T11:53:49.165Z,100393.00
2019-05-15T11:56:19.022Z,100397.00
2019-05-15T11:58:47.945Z,100393.00
2019-05-15T12:01:19.120Z,100389.00
2019-05-15T12:03:46.992Z,100386.00
2019-05-15T12:06:19.740Z,100387.00
2019-05-15T12:08:46.465Z,100377.00
2019-05-15T12:11:30.769Z,100379.00
2019-05-15T12:13:45.958Z,100370.00
2019-05-15T12:16:14.819Z,100369.00
2019-05-15T12:18:43.841Z,100375.00
2019-05-15T12:21:13.513Z,100369.00
2019-05-15T12:23:42.002Z,100364.00
2019-05-15T12:26:10.793Z,100363.00
2019-05-15T12:28:40.634Z,100356.00
2019-05-15T12:31:09.364Z,100356.00
2019-05-15T12:33:40.047Z,100354.00
2019-05-15T12:36:10.711Z,100342.00
2019-05-15T12:38:39.913Z,100350.00
2019-05-15T13:01:19.088Z,100338.00
2019-05-15T13:03:48.613Z,100341.00
2019-05-15T13:06:19.202Z,100340.00
2019-05-15T13:08:48.917Z,100323.00
2019-05-15T13:11:18.181Z,100331.00
2019-05-15T13:13:48.408Z,100320.00
2019-05-15T13:16:18.798Z,100318.00
2019-05-15T13:18:48.075Z,100323.00
2019-05-15T13:21:20.863Z,100324.00
2019-05-15T13:23:48.236Z,100321.00
2019-05-15T13:26:23.559Z,100316.00
2019-05-15T13:28:48.785Z,100313.00
2019-05-15T13:31:19.097Z,100308.00
2019-05-15T13:33:49.336Z,100300.00
2019-05-15T13:36:19.888Z,100307.00
2019-05-15T13:38:48.526Z,100303.00
2019-05-15T13:41:19.216Z,100302.00
2019-05-15T13:43:49.266Z,100297.00
2019-05-15T13:46:20.632Z,100304.00
2019-05-15T13:48:49.107Z,100298.00
2019-05-15T13:51:18.244Z,100284.00
2019-05-15T13:53:49.102Z,100283.00
2019-05-15T13:56:18.341Z,100281.00
2019-05-15T13:58:48.081Z,100277.00
2019-05-15T14:01:19.294Z,100276.00
2019-05-15T14:03:48.323Z,100275.00
2019-05-15T14:06:19.173Z,100274.00
2019-05-15T14:08:48.748Z,100265.00
2019-05-15T14:11:21.896Z,100276.00
2019-05-15T14:13:48.702Z,100256.00
2019-05-15T14:16:19.284Z,100268.00
2019-05-15T14:18:48.033Z,100262.00
2019-05-15T14:21:18.429Z,100259.00
2019-05-15T14:23:47.831Z,100251.00
2019-05-15T14:26:22.172Z,100255.00
2019-05-15T14:28:48.120Z,100248.00
2019-05-15T14:31:18.245Z,100243.00
2019-05-15T14:33:48.793Z,100239.00
2019-05-15T14:36:19.645Z,100236.00
2019-05-15T14:38:48.628Z,100234.00
2019-05-15T14:41:19.523Z,100226.00
2019-05-15T14:43:50.634Z,100229.00
2019-05-15T14:46:19.313Z,100223.00
2019-05-15T14:48:49.046Z,100217.00
2019-05-15T14:51:19.268Z,100210.00
2019-05-15T14:53:48.973Z,100208.00
2019-05-15T14:56:18.623Z,100216.00
2019-05-15T14:58:48.129Z,100218.00
2019-05-15T15:01:18.525Z,100214.00
2019-05-15T15:03:48.737Z,100220.00
2019-05-15T15:06:18.366Z,100216.00
2019-05-15T15:08:48.738Z,100214.00
2019-05-15T15:11:18.046Z,100210.00
2019-05-15T15:13:46.559Z,100208.00
2019-05-15T15:16:19.124Z,100207.00
2019-05-15T15:18:48.291Z,100204.00
2019-05-15T15:21:19.533Z,100209.00
2019-05-15T15:23:48.188Z,100208.00
2019-05-15T15:26:18.988Z,100195.00
2019-05-15T15:28:48.944Z,100194.00
2019-05-15T15:31:19.169Z,100198.00
2019-05-15T15:33:48.602Z,100200.00
2019-05-15T15:36:17.981Z,100198.00
2019-05-15T15:38:48.964Z,100192.00
2019-05-15T15:41:18.426Z,100195.00
2019-05-15T15:43:51.897Z,100193.00
2019-05-15T15:46:20.307Z,100183.00
2019-05-15T15:48:49.081Z,100184.00
2019-05-15T15:51:18.081Z,100180.00
2019-05-15T15:53:47.966Z,100186.00
2019-05-15T15:56:18.618Z,100177.00
2019-05-15T15:58:48.738Z,100184.00
2019-05-15T16:01:18.658Z,100181.00
2019-05-15T16:03:48.383Z,100171.00
2019-05-15T16:06:18.739Z,100175.00
2019-05-15T16:08:53.158Z,100169.00
2019-05-15T16:11:18.875Z,100168.00
2019-05-15T16:13:49.706Z,100162.00
2019-05-15T16:16:18.770Z,100170.00
2019-05-15T16:18:49.169Z,100160.00
2019-05-15T16:21:19.338Z,100163.00
2019-05-15T16:23:49.387Z,100158.00
2019-05-15T16:26:19.487Z,100160.00
2019-05-15T16:28:49.075Z,100161.00
2019-05-15T16:31:18.591Z,100157.00
2019-05-15T16:33:48.141Z,100159.00
2019-05-15T16:36:18.315Z,100158.00
2019-05-15T16:38:48.207Z,100159.00
2019-05-15T16:41:19.174Z,100162.00
2019-05-15T16:43:49.328Z,100156.00
2019-05-15T16:46:20.203Z,100155.00
2019-05-15T16:48:49.443Z,100151.00
2019-05-15T16:51:18.493Z,100152.00
2019-05-15T16:53:48.913Z,100147.00
2019-05-15T16:56:18.982Z,100145.00
2019-05-15T16:58:48.270Z,100142.00
2019-05-15T17:01:18.718Z,100146.00
2019-05-15T17:03:48.495Z,100144.00
2019-05-15T17:06:18.621Z,100147.00
2019-05-15T17:08:48.720Z,100144.00
2019-05-15T17:11:19.927Z,100144.00
2019-05-15T17:13:49.051Z,100143.00
2019-05-15T17:16:18.742Z,100145.00
2019-05-15T17:18:48.603Z,100146.00
2019-05-15T17:21:19.121Z,100145.00
2019-05-15T17:23:48.940Z,100146.00
2019-05-15T17:26:18.993Z,100149.00
2019-05-15T17:28:47.898Z,100143.00
2019-05-15T17:31:18.096Z,100147.00
2019-05-15T17:33:48.922Z,100153.00
2019-05-15T17:36:18.400Z,100161.00
2019-05-15T17:38:48.752Z,100154.00
2019-05-15T17:41:19.530Z,100153.00
2019-05-15T17:43:48.690Z,100148.00
2019-05-15T17:46:19.375Z,100149.00
2019-05-15T17:48:55.942Z,100146.00
2019-05-15T17:51:20.747Z,100142.00
2019-05-15T17:53:49.631Z,100139.00
2019-05-15T17:56:18.979Z,100145.00
2019-05-15T17:58:48.747Z,100148.00
2019-05-15T18:01:19.160Z,100153.00
2019-05-15T18:03:48.738Z,100141.00
2019-05-15T18:06:18.113Z,100148.00
2019-05-15T18:08:48.570Z,100146.00
2019-05-15T18:11:18.720Z,100157.00
2019-05-15T18:13:48.664Z,100159.00
2019-05-15T18:16:18.401Z,100150.00
2019-05-15T18:18:49.914Z,100151.00
2019-05-15T18:21:19.553Z,100155.00
2019-05-15T18:23:48.731Z,100159.00
2019-05-15T18:26:18.469Z,100156.00
2019-05-15T18:28:48.898Z,100158.00
2019-05-15T18:31:18.340Z,100168.00
2019-05-15T18:33:53.708Z,100159.00
2019-05-15T18:36:18.146Z,100155.00
2019-05-15T18:38:48.290Z,100161.00
2019-05-15T18:41:18.411Z,100161.00
2019-05-15T18:43:49.710Z,100152.00
2019-05-15T18:46:20.999Z,100162.00
2019-05-15T18:48:54.617Z,100162.00
2019-05-15T18:51:24.175Z,100174.00
2019-05-15T18:53:53.551Z,100172.00
2019-05-15T18:56:21.994Z,100166.00
2019-05-15T18:58:51.215Z,100166.00
2019-05-15T19:01:20.322Z,100162.00
2019-05-15T19:03:49.044Z,100163.00
2019-05-15T19:06:18.605Z,100169.00
2019-05-15T19:08:47.255Z,100162.00
2019-05-15T19:11:18.393Z,100153.00
2019-05-15T19:13:48.131Z,100159.00
2019-05-15T19:16:16.815Z,100159.00
2019-05-15T19:18:47.753Z,100152.00
2019-05-15T19:21:17.080Z,100153.00
2019-05-15T19:23:47.856Z,100150.00
2019-05-15T19:26:18.284Z,100151.00
2019-05-15T19:28:48.629Z,100144.00
2019-05-15T19:31:26.834Z,100151.00
2019-05-15T19:33:48.894Z,100148.00
2019-05-15T19:36:18.251Z,100146.00
2019-05-15T19:38:48.058Z,100143.00
2019-05-15T19:41:18.302Z,100141.00
2019-05-15T19:43:48.747Z,100136.00
2019-05-15T19:46:19.416Z,100134.00
2019-05-15T19:48:48.962Z,100133.00
2019-05-15T19:51:19.473Z,100126.00
2019-05-15T19:53:48.468Z,100140.00
2019-05-15T19:56:18.858Z,100147.00
2019-05-15T19:58:47.654Z,100140.00
2019-05-15T20:01:18.879Z,100144.00
2019-05-15T20:03:52.243Z,100144.00
2019-05-15T20:06:18.816Z,100138.00
2019-05-15T20:08:47.890Z,100138.00
2019-05-15T20:11:18.423Z,100139.00
2019-05-15T20:13:48.786Z,100137.00
2019-05-15T20:16:21.080Z,100132.00
2019-05-15T20:18:48.195Z,100137.00
2019-05-15T20:21:18.221Z,100131.00
2019-05-15T20:23:48.854Z,100128.00
2019-05-15T20:26:18.068Z,100121.00
2019-05-15T20:28:48.412Z,100128.00
2019-05-15T20:31:18.593Z,100126.00
2019-05-15T20:33:48.401Z,100119.00
2019-05-15T20:36:18.375Z,100122.00
2019-05-15T20:38:48.434Z,100118.00
2019-05-15T20:41:18.684Z,100112.00
2019-05-15T20:43:49.215Z,100118.00
2019-05-15T20:46:19.291Z,100108.00
2019-05-15T20:48:50.255Z,100099.00
2019-05-15T20:51:20.512Z,100104.00
2019-05-15T20:53:49.201Z,100117.00
2019-05-15T20:56:18.223Z,100100.00
2019-05-15T20:58:47.851Z,100106.00
2019-05-15T21:01:18.251Z,100104.00
2019-05-15T21:03:50.511Z,100098.00
2019-05-15T21:06:17.905Z,100104.00
2019-05-15T21:08:48.791Z,100110.00
2019-05-15T21:11:18.006Z,100099.00
2019-05-15T21:13:49.109Z,100089.00
2019-05-15T21:16:18.729Z,100091.00
2019-05-15T21:18:48.016Z,100091.00
2019-05-15T21:21:19.133Z,100077.00
2019-05-15T21:23:49.005Z,100069.00
2019-05-15T21:26:18.754Z,100062.00
2019-05-15T21:28:48.319Z,100059.00
2019-05-15T21:31:21.784Z,100058.00
2019-05-15T21:33:48.127Z,100049.00
2019-05-15T21:36:19.356Z,100047.00
2019-05-15T21:38:48.194Z,100045.00
2019-05-15T21:41:18.790Z,100057.00
2019-05-15T21:43:48.218Z,100053.00
2019-05-15T21:46:19.032Z,100062.00
2019-05-15T21:48:49.076Z,100060.00
2019-05-15T21:51:18.691Z,100057.00
2019-05-15T21:53:49.626Z,100055.00
2019-05-15T21:56:18.913Z,100049.00
2019-05-15T21:58:48.383Z,100046.00
2019-05-15T22:01:19.613Z,100053.00
2019-05-15T22:03:48.286Z,100046.00
2019-05-15T22:06:18.492Z,100045.00
2019-05-15T22:08:47.287Z,100043.00
2019-05-15T22:11:18.797Z,100034.00
2019-05-15T22:13:48.434Z,100029.00
2019-05-15T22:16:18.906Z,100029.00
2019-05-15T22:18:48.528Z,100030.00
2019-05-15T22:21:18.608Z,100026.00
2019-05-15T22:23:47.399Z,100026.00
2019-05-15T22:26:18.475Z,100022.00
2019-05-15T22:28:46.144Z,100010.00
2019-05-15T22:31:15.715Z,100017.00
2019-05-15T22:33:44.260Z,100018.00
2019-05-15T22:36:13.263Z,100024.00
2019-05-15T22:38:41.646Z,100023.00
2019-05-15T22:41:10.538Z,100023.00
2019-05-15T22:43:39.328Z,100018.00
2019-05-15T22:46:10.917Z,100027.00
2019-05-15T22:48:39.141Z,100015.00
2019-05-15T22:51:09.343Z,100017.00
2019-05-15T22:53:38.342Z,100013.00
2019-05-15T22:56:09.422Z,100007.00
2019-05-15T22:58:38.631Z,100007.00
2019-05-15T23:01:09.171Z,100004.00
2019-05-15T23:03:39.459Z,100001.00
2019-05-15T23:06:08.374Z,99996.00
2019-05-15T23:08:38.410Z,99982.00
2019-05-15T23:11:09.554Z,99989.00
2019-05-15T23:13:38.974Z,99977.00
2019-05-15T23:16:07.663Z,99984.00
2019-05-15T23:18:36.324Z,99981.00
2019-05-15T23:21:05.015Z,99989.00
2019-05-15T23:23:33.354Z,99989.00
2019-05-15T23:26:01.861Z,99989.00
2019-05-15T23:28:30.427Z,99994.00
2019-05-15T23:30:58.883Z,99988.00
2019-05-15T23:33:28.249Z,99984.00
2019-05-15T23:35:58.715Z,99989.00
2019-05-15T23:38:28.046Z,99984.00
2019-05-15T23:40:58.936Z,99986.00
2019-05-15T23:43:28.295Z,99989.00
2019-05-15T23:45:58.998Z,99988.00
2019-05-15T23:48:28.413Z,99983.00
2019-05-15T23:50:59.204Z,99980.00
2019-05-15T23:53:29.909Z,99980.00
2019-05-15T23:55:58.930Z,99980.00
2019-05-15T23:58:29.122Z,99972.00
